Conway, Washington
Current Conditions -  °F | °C
As of 2:35 PM on Sunday 23 Nov 2014 (Local Time) from KBVS Reporting Station
Few Clouds Few Clouds  
Wind Chill: 52°   Ceiling: Unl
Heat Index: 52°   Visibility: 10mi
Dew Point: 41°   Wind: 9mph
Humidity: 67%   Direction: 250°WSW
Pressure: 30.14"   Gusts: NA
Location:  48.34°N, 122.35°W
Report Text: KBVS 232235Z AUTO 25008KT 040V050 10SM FEW120 11/05 A3014 RMK A01 P000
Loading
Personal Weather Stations






























Interactive Weather Map New forecast layout! Learn more

10-Day Weather Forecast

Advertisements
Track Severe Weather on mobile